createdAt,value
2023-08-30T00:01:43.036Z,12.22
2023-08-30T00:04:46.202Z,12.15
2023-08-30T00:07:50.684Z,12.22
2023-08-30T00:10:54.366Z,12.16
2023-08-30T00:14:06.615Z,12.40
2023-08-30T00:17:10.025Z,12.22
2023-08-30T00:20:13.803Z,12.13
2023-08-30T00:23:18.764Z,12.06
2023-08-30T00:26:21.946Z,12.33
2023-08-30T00:29:25.103Z,12.10
2023-08-30T00:32:28.656Z,12.02
2023-08-30T00:35:32.118Z,11.96
2023-08-30T00:38:36.639Z,12.39
2023-08-30T00:41:39.842Z,12.58
2023-08-30T00:44:43.031Z,12.18
2023-08-30T00:47:46.359Z,12.05
2023-08-30T00:50:52.167Z,12.04
2023-08-30T00:53:57.424Z,12.06
2023-08-30T00:57:02.683Z,12.00
2023-08-30T01:00:08.633Z,12.00
2023-08-30T01:03:17.995Z,12.15
2023-08-30T01:06:21.388Z,11.97
2023-08-30T01:09:26.919Z,12.17
2023-08-30T01:12:39.037Z,12.09
2023-08-30T01:15:45.085Z,11.90
2023-08-30T01:18:49.404Z,11.81
2023-08-30T01:21:58.472Z,11.87
2023-08-30T01:25:17.946Z,11.83
2023-08-30T01:28:26.842Z,11.83
2023-08-30T01:31:34.548Z,11.85
2023-08-30T01:34:38.897Z,11.93
2023-08-30T01:37:42.594Z,11.89
2023-08-30T01:40:46.905Z,12.21
2023-08-30T01:43:53.834Z,12.07
2023-08-30T01:46:58.709Z,12.02
2023-08-30T01:50:02.332Z,11.98
2023-08-30T01:53:06.110Z,11.98
2023-08-30T01:56:09.730Z,11.97
2023-08-30T01:59:15.078Z,12.10
2023-08-30T02:02:18.355Z,12.18
2023-08-30T02:05:21.498Z,12.05
2023-08-30T02:08:29.198Z,12.16
2023-08-30T02:11:36.724Z,12.36
2023-08-30T02:14:42.933Z,12.16
2023-08-30T02:17:47.154Z,12.11
2023-08-30T02:20:50.466Z,12.07
2023-08-30T02:23:53.906Z,12.07
2023-08-30T02:26:57.149Z,12.11
2023-08-30T02:30:01.776Z,12.60
2023-08-30T02:33:05.902Z,12.53
2023-08-30T02:36:09.841Z,12.46
2023-08-30T02:39:13.919Z,12.50
2023-08-30T02:42:17.167Z,12.64
2023-08-30T02:45:21.677Z,12.32
2023-08-30T02:48:24.849Z,12.26
2023-08-30T02:51:28.050Z,12.24
2023-08-30T02:54:31.341Z,12.20
2023-08-30T02:57:34.482Z,12.30
2023-08-30T03:00:39.346Z,12.15
2023-08-30T03:03:44.515Z,12.44
2023-08-30T03:06:47.763Z,12.19
2023-08-30T03:09:54.354Z,12.52
2023-08-30T03:12:57.624Z,12.30
2023-08-30T03:16:02.253Z,12.38
2023-08-30T03:19:06.191Z,12.15
2023-08-30T03:22:09.403Z,12.16
2023-08-30T03:25:13.534Z,12.06
2023-08-30T03:28:16.855Z,11.99
2023-08-30T03:34:31.387Z,12.30
2023-08-30T03:37:34.530Z,12.09
2023-08-30T03:40:40.626Z,12.32
2023-08-30T03:43:44.787Z,12.28
2023-08-30T03:46:48.109Z,12.44
2023-08-30T03:49:52.837Z,12.26
2023-08-30T03:52:55.961Z,12.27
2023-08-30T03:56:00.361Z,12.25
2023-08-30T03:59:03.678Z,12.21
2023-08-30T04:02:08.060Z,12.02
2023-08-30T04:05:12.862Z,11.98
2023-08-30T04:08:16.190Z,11.97
2023-08-30T04:11:19.383Z,11.97
2023-08-30T04:14:24.526Z,12.09
2023-08-30T04:17:28.246Z,12.02
2023-08-30T04:20:33.441Z,11.95
2023-08-30T04:23:36.650Z,11.94
2023-08-30T04:26:39.996Z,11.89
2023-08-30T04:29:46.072Z,11.91
2023-08-30T04:32:49.980Z,11.85
2023-08-30T04:35:55.814Z,11.87
2023-08-30T04:39:02.863Z,11.84
2023-08-30T04:42:07.732Z,11.84
2023-08-30T04:45:11.972Z,12.04
2023-08-30T04:48:15.305Z,12.53
2023-08-30T04:51:21.453Z,12.21
2023-08-30T04:54:25.104Z,12.14
2023-08-30T04:57:28.410Z,12.19
2023-08-30T05:00:32.470Z,12.18
2023-08-30T05:03:36.000Z,12.19
2023-08-30T05:06:40.693Z,12.29
2023-08-30T05:09:43.930Z,12.41
2023-08-30T05:12:52.947Z,12.61
2023-08-30T05:15:56.417Z,12.51
2023-08-30T05:18:59.707Z,12.83
2023-08-30T05:22:04.751Z,12.72
2023-08-30T05:25:08.443Z,12.60
2023-08-30T05:28:11.756Z,12.53
2023-08-30T05:31:15.123Z,12.58
2023-08-30T05:35:06.133Z,12.62
2023-08-30T05:38:33.818Z,12.54
2023-08-30T05:41:59.367Z,12.59
2023-08-30T05:45:02.531Z,12.56
2023-08-30T05:48:08.536Z,12.61
2023-08-30T05:51:11.921Z,12.60
2023-08-30T05:54:16.672Z,12.70
2023-08-30T05:57:19.945Z,12.77
2023-08-30T06:00:24.749Z,12.78
2023-08-30T06:03:28.032Z,12.94
2023-08-30T06:06:31.306Z,12.93
2023-08-30T06:09:35.856Z,12.90
2023-08-30T06:12:38.995Z,12.93
2023-08-30T06:15:42.202Z,12.96
2023-08-30T06:18:45.476Z,13.10
2023-08-30T06:21:48.688Z,13.15
2023-08-30T06:24:53.611Z,13.25
2023-08-30T06:27:59.634Z,13.32
2023-08-30T06:31:03.527Z,13.31
2023-08-30T06:34:06.896Z,14.50
2023-08-30T06:37:10.145Z,15.40
2023-08-30T06:40:15.525Z,16.28
2023-08-30T06:43:19.476Z,17.05
2023-08-30T06:46:22.919Z,17.28
2023-08-30T06:49:26.577Z,17.38
2023-08-30T06:52:29.756Z,17.79
2023-08-30T06:55:34.591Z,18.22
2023-08-30T06:58:37.817Z,18.78
2023-08-30T07:01:41.026Z,19.21
2023-08-30T07:04:44.273Z,19.53
2023-08-30T07:07:47.455Z,19.53
2023-08-30T07:10:53.381Z,20.06
2023-08-30T07:13:56.632Z,20.13
2023-08-30T07:17:00.500Z,20.62
2023-08-30T07:20:05.987Z,20.60
2023-08-30T07:23:11.120Z,19.98
2023-08-30T07:26:15.774Z,19.88
2023-08-30T07:29:19.031Z,20.55
2023-08-30T07:32:22.361Z,20.83
2023-08-30T07:35:25.647Z,21.78
2023-08-30T07:38:29.042Z,21.76
2023-08-30T07:41:36.574Z,21.78
2023-08-30T07:44:39.647Z,21.87
2023-08-30T07:47:42.869Z,22.22
2023-08-30T07:50:46.538Z,22.87
2023-08-30T07:53:50.040Z,22.85
2023-08-30T07:56:57.724Z,22.13
2023-08-30T08:00:01.096Z,22.13
2023-08-30T08:03:05.358Z,22.01
2023-08-30T08:06:08.641Z,21.58
2023-08-30T08:09:11.930Z,22.11
2023-08-30T08:12:16.472Z,21.79
2023-08-30T08:15:19.743Z,22.20
2023-08-30T08:18:23.057Z,21.33
2023-08-30T08:21:26.322Z,21.58
2023-08-30T08:24:29.483Z,22.60
2023-08-30T08:27:34.005Z,22.88
2023-08-30T08:30:38.341Z,24.01
2023-08-30T08:33:42.154Z,23.47
2023-08-30T08:36:45.354Z,23.34
2023-08-30T08:39:50.322Z,22.63
2023-08-30T08:42:56.458Z,22.74
2023-08-30T08:46:02.425Z,22.65
2023-08-30T08:49:11.555Z,22.85
2023-08-30T08:52:29.544Z,23.17
2023-08-30T08:55:35.726Z,22.59
2023-08-30T08:58:41.036Z,23.63
2023-08-30T09:01:44.702Z,23.85
2023-08-30T09:04:48.768Z,23.66
2023-08-30T09:07:54.632Z,23.40
2023-08-30T09:10:58.313Z,22.31
2023-08-30T09:14:03.018Z,22.11
2023-08-30T09:17:06.668Z,21.93
2023-08-30T09:20:11.329Z,22.33
2023-08-30T09:23:22.157Z,22.91
2023-08-30T09:26:25.813Z,22.81
2023-08-30T09:29:30.399Z,22.58
2023-08-30T09:34:31.332Z,22.56
2023-08-30T09:37:34.640Z,22.51
2023-08-30T09:40:37.868Z,22.88
2023-08-30T09:43:44.481Z,23.25
2023-08-30T09:46:52.174Z,23.43
2023-08-30T09:49:58.268Z,23.12
2023-08-30T09:53:03.802Z,23.70
2023-08-30T09:56:09.567Z,22.99
2023-08-30T09:59:13.449Z,23.38
2023-08-30T10:02:18.337Z,22.90
2023-08-30T10:05:22.946Z,22.83
2023-08-30T10:08:30.562Z,22.56
2023-08-30T10:11:35.841Z,23.02
2023-08-30T10:14:39.675Z,22.65
2023-08-30T10:17:47.390Z,23.11
2023-08-30T10:20:56.634Z,23.92
2023-08-30T10:24:02.512Z,23.17
2023-08-30T10:27:10.403Z,23.27
2023-08-30T10:30:15.274Z,23.47
2023-08-30T10:33:19.703Z,23.16
2023-08-30T10:36:25.366Z,23.41
2023-08-30T10:39:36.345Z,23.15
2023-08-30T10:42:39.607Z,22.22
2023-08-30T10:45:44.471Z,22.25
2023-08-30T10:48:49.841Z,22.82
2023-08-30T10:52:03.642Z,23.34
2023-08-30T10:55:07.952Z,23.04
2023-08-30T10:58:16.812Z,23.32
2023-08-30T11:01:22.972Z,22.54
2023-08-30T11:04:29.088Z,22.76
2023-08-30T11:07:33.795Z,23.44
2023-08-30T11:10:37.193Z,23.87
2023-08-30T11:13:40.326Z,23.69
2023-08-30T11:16:43.544Z,23.36
2023-08-30T11:19:47.126Z,23.34
2023-08-30T11:22:52.553Z,23.83
2023-08-30T11:25:55.701Z,24.04
2023-08-30T11:28:58.961Z,23.68
2023-08-30T11:32:02.520Z,23.87
2023-08-30T11:35:07.159Z,22.59
2023-08-30T11:38:12.116Z,23.01
2023-08-30T11:41:15.607Z,23.24
2023-08-30T11:44:20.918Z,23.03
2023-08-30T11:47:25.859Z,23.07
2023-08-30T11:50:33.006Z,22.77
2023-08-30T11:53:44.797Z,22.78
2023-08-30T11:56:51.087Z,22.68
2023-08-30T11:59:54.346Z,22.56
2023-08-30T12:02:57.809Z,22.26
2023-08-30T12:06:01.137Z,22.62
2023-08-30T12:09:10.824Z,22.30
2023-08-30T12:12:14.599Z,22.36
2023-08-30T12:15:18.033Z,22.60
2023-08-30T12:18:24.213Z,22.68
2023-08-30T12:21:28.363Z,22.87
2023-08-30T12:24:42.618Z,23.27
2023-08-30T12:27:45.990Z,23.48
2023-08-30T12:30:49.249Z,23.11
2023-08-30T12:33:52.528Z,23.44
2023-08-30T12:36:57.785Z,23.61
2023-08-30T12:40:02.500Z,23.26
2023-08-30T12:43:06.130Z,23.66
2023-08-30T12:46:11.991Z,24.15
2023-08-30T12:49:15.511Z,23.99
2023-08-30T12:52:18.735Z,23.92
2023-08-30T12:55:23.505Z,23.61
2023-08-30T12:58:26.745Z,23.72
2023-08-30T13:01:30.038Z,23.93
2023-08-30T13:04:33.310Z,23.93
2023-08-30T13:07:36.475Z,23.89
2023-08-30T13:10:41.063Z,24.02
2023-08-30T13:13:44.986Z,24.15
2023-08-30T13:16:48.224Z,24.40
2023-08-30T13:19:52.056Z,24.72
2023-08-30T13:22:55.201Z,24.33
2023-08-30T13:25:59.770Z,24.26
2023-08-30T13:29:03.336Z,24.59
2023-08-30T13:32:07.291Z,24.67
2023-08-30T13:35:10.790Z,24.68
2023-08-30T13:38:14.116Z,24.59
2023-08-30T13:41:18.689Z,23.78
2023-08-30T13:44:21.915Z,23.66
2023-08-30T13:47:25.235Z,22.95
2023-08-30T13:50:31.550Z,23.37
2023-08-30T13:53:34.734Z,23.39
2023-08-30T13:56:39.890Z,22.82
2023-08-30T13:59:43.135Z,23.20
2023-08-30T14:02:46.371Z,23.34
2023-08-30T14:05:49.656Z,23.37
2023-08-30T14:08:52.911Z,22.95
2023-08-30T14:11:57.503Z,22.67
2023-08-30T14:15:00.693Z,23.12
2023-08-30T14:18:04.119Z,22.66
2023-08-30T14:21:08.049Z,23.04
2023-08-30T14:24:11.272Z,23.04
2023-08-30T14:27:16.032Z,23.19
2023-08-30T14:30:19.540Z,23.06
2023-08-30T14:33:22.896Z,23.09
2023-08-30T14:36:26.154Z,22.86
2023-08-30T14:39:31.489Z,22.96
2023-08-30T14:42:36.091Z,22.31
2023-08-30T14:45:39.369Z,22.38
2023-08-30T14:48:42.605Z,22.16
2023-08-30T14:51:46.199Z,22.73
2023-08-30T14:54:50.368Z,22.60
2023-08-30T14:57:54.870Z,22.31
2023-08-30T15:00:58.425Z,22.39
2023-08-30T15:04:02.504Z,22.51
2023-08-30T15:07:05.802Z,22.23
2023-08-30T15:10:09.770Z,22.56
2023-08-30T15:13:14.479Z,22.58
2023-08-30T15:16:17.660Z,22.52
2023-08-30T15:19:20.879Z,22.59
2023-08-30T15:22:24.172Z,22.83
2023-08-30T15:25:27.449Z,22.73
2023-08-30T15:28:31.959Z,22.86
2023-08-30T15:34:31.193Z,22.34
2023-08-30T15:37:34.366Z,22.67
2023-08-30T15:40:39.052Z,22.74
2023-08-30T15:43:42.721Z,22.94
2023-08-30T15:46:45.996Z,23.03
2023-08-30T15:49:50.738Z,23.00
2023-08-30T15:52:54.821Z,22.77
2023-08-30T15:55:59.273Z,22.44
2023-08-30T15:59:02.573Z,22.10
2023-08-30T16:02:06.298Z,22.32
2023-08-30T16:05:11.991Z,21.85
2023-08-30T16:08:15.610Z,21.98
2023-08-30T16:11:19.123Z,22.21
2023-08-30T16:14:22.449Z,22.18
2023-08-30T16:17:25.873Z,22.45
2023-08-30T16:20:32.634Z,21.83
2023-08-30T16:23:36.105Z,21.83
2023-08-30T16:26:39.373Z,22.11
2023-08-30T16:29:42.798Z,22.37
2023-08-30T16:32:46.069Z,22.33
2023-08-30T16:35:51.340Z,22.00
2023-08-30T16:38:54.625Z,21.76
2023-08-30T16:41:58.132Z,21.53
2023-08-30T16:45:01.395Z,21.39
2023-08-30T16:48:07.870Z,21.57
2023-08-30T16:51:12.559Z,21.36
2023-08-30T16:54:15.854Z,21.54
2023-08-30T16:57:19.143Z,21.74
2023-08-30T17:00:22.432Z,21.80
2023-08-30T17:03:25.948Z,21.47
2023-08-30T17:06:30.471Z,21.48
2023-08-30T17:09:36.301Z,21.34
2023-08-30T17:12:39.501Z,21.55
2023-08-30T17:15:43.658Z,21.48
2023-08-30T17:18:47.085Z,21.29
2023-08-30T17:21:52.937Z,21.24
2023-08-30T17:24:56.312Z,20.84
2023-08-30T17:27:59.704Z,20.67
2023-08-30T17:31:03.008Z,20.54
2023-08-30T17:34:06.420Z,20.40
2023-08-30T17:37:11.306Z,20.48
2023-08-30T17:40:14.849Z,20.36
2023-08-30T17:43:18.327Z,20.55
2023-08-30T17:46:21.505Z,20.50
2023-08-30T17:49:24.950Z,20.56
2023-08-30T17:52:29.494Z,20.39
2023-08-30T17:55:32.758Z,20.43
2023-08-30T17:58:36.883Z,20.28
2023-08-30T18:01:40.059Z,20.03
2023-08-30T18:04:43.567Z,20.29
2023-08-30T18:07:48.213Z,20.05
2023-08-30T18:10:51.482Z,19.67
2023-08-30T18:13:54.952Z,19.80
2023-08-30T18:16:58.560Z,19.81
2023-08-30T18:20:01.913Z,19.45
2023-08-30T18:23:06.832Z,19.58
2023-08-30T18:26:10.234Z,19.58
2023-08-30T18:29:13.791Z,19.64
2023-08-30T18:32:17.196Z,19.58
2023-08-30T18:35:20.485Z,19.51
2023-08-30T18:38:25.133Z,19.18
2023-08-30T18:41:28.493Z,18.95
2023-08-30T18:44:31.795Z,18.96
2023-08-30T18:47:35.430Z,19.06
2023-08-30T18:50:42.239Z,19.03
2023-08-30T18:53:47.818Z,18.96
2023-08-30T18:56:52.128Z,18.79
2023-08-30T18:59:55.388Z,18.69
2023-08-30T19:02:58.737Z,18.70
2023-08-30T19:06:02.034Z,18.75
2023-08-30T19:09:09.623Z,18.75
2023-08-30T19:12:12.923Z,18.77
2023-08-30T19:15:16.161Z,18.79
2023-08-30T19:18:19.383Z,18.81
2023-08-30T19:21:23.187Z,18.86
2023-08-30T19:24:27.937Z,18.85
2023-08-30T19:27:31.130Z,18.90
2023-08-30T19:30:34.388Z,18.86
2023-08-30T19:33:37.681Z,18.80
2023-08-30T19:36:40.893Z,18.71
2023-08-30T19:39:45.400Z,18.53
2023-08-30T19:42:50.402Z,18.30
2023-08-30T19:46:04.205Z,18.18
2023-08-30T19:49:07.355Z,18.30
2023-08-30T19:52:10.515Z,18.13
2023-08-30T19:55:15.139Z,18.34
2023-08-30T19:58:18.622Z,18.17
2023-08-30T20:01:22.187Z,18.03
2023-08-30T20:04:25.821Z,18.14
2023-08-30T20:07:29.301Z,18.25
2023-08-30T20:10:34.505Z,18.22
2023-08-30T20:13:37.774Z,18.03
2023-08-30T20:16:41.329Z,17.77
2023-08-30T20:19:45.438Z,17.89
2023-08-30T20:22:48.776Z,17.65
2023-08-30T20:25:54.318Z,17.47
2023-08-30T20:28:57.511Z,17.63
2023-08-30T20:32:01.089Z,17.76
2023-08-30T20:35:06.362Z,17.68
2023-08-30T20:38:10.427Z,17.64
2023-08-30T20:41:14.995Z,17.64
2023-08-30T20:44:18.215Z,17.72
2023-08-30T20:47:21.465Z,17.65
2023-08-30T20:50:24.701Z,17.79
2023-08-30T20:53:34.082Z,17.67
2023-08-30T20:56:39.101Z,17.69
2023-08-30T20:59:44.031Z,17.65
2023-08-30T21:02:47.303Z,17.66
2023-08-30T21:05:51.553Z,17.46
2023-08-30T21:08:55.370Z,17.60
2023-08-30T21:12:00.290Z,17.55
2023-08-30T21:15:04.053Z,17.68
2023-08-30T21:18:07.834Z,17.52
2023-08-30T21:21:11.709Z,17.90
2023-08-30T21:24:14.934Z,17.51
2023-08-30T21:27:19.797Z,17.35
2023-08-30T21:34:31.015Z,17.16
2023-08-30T21:37:34.327Z,17.39
2023-08-30T21:40:39.328Z,17.39
2023-08-30T21:43:42.519Z,17.36
2023-08-30T21:46:46.322Z,17.02
2023-08-30T21:49:51.008Z,17.17
2023-08-30T21:52:54.167Z,17.37
2023-08-30T21:55:57.817Z,17.80
2023-08-30T21:59:01.097Z,17.62
2023-08-30T22:02:04.389Z,17.78
2023-08-30T22:05:11.691Z,17.23
2023-08-30T22:08:14.843Z,16.97
2023-08-30T22:11:18.020Z,16.64
2023-08-30T22:14:21.152Z,16.72
2023-08-30T22:17:24.325Z,17.15
2023-08-30T22:20:28.898Z,17.38
2023-08-30T22:23:32.193Z,17.39
2023-08-30T22:26:35.351Z,17.45
2023-08-30T22:29:38.646Z,17.43
2023-08-30T22:32:41.883Z,17.56
2023-08-30T22:35:46.726Z,17.52
2023-08-30T22:38:51.507Z,17.50
2023-08-30T22:41:54.743Z,17.43
2023-08-30T22:44:57.972Z,17.65
2023-08-30T22:48:01.442Z,17.84
2023-08-30T22:51:06.271Z,17.87
2023-08-30T22:54:09.418Z,17.92
2023-08-30T22:57:12.603Z,17.88
2023-08-30T23:00:17.742Z,17.89
2023-08-30T23:03:21.038Z,17.68
2023-08-30T23:06:25.885Z,17.32
2023-08-30T23:09:29.281Z,17.03
2023-08-30T23:12:32.567Z,16.87
2023-08-30T23:15:35.912Z,16.83
2023-08-30T23:18:39.079Z,16.91
2023-08-30T23:21:43.721Z,16.72
2023-08-30T23:24:47.540Z,16.65
2023-08-30T23:27:51.212Z,16.81
2023-08-30T23:30:54.465Z,16.60
2023-08-30T23:33:57.619Z,16.72
2023-08-30T23:37:02.399Z,16.80
2023-08-30T23:40:10.970Z,16.85
2023-08-30T23:43:14.164Z,16.59
2023-08-30T23:46:17.742Z,16.36
2023-08-30T23:49:21.112Z,16.45
2023-08-30T23:52:26.048Z,16.55
2023-08-30T23:55:29.206Z,16.49
2023-08-30T23:58:32.430Z,16.26
